INFORMACIÓN METAR y TAF
METAR FOR LEMH
ADDS - METARS form results

(0554 UTC 22 June 2021)
Data provider http://aviationweather.gov/metar/data/
 
METAR text: LEMH 220530Z 22006KT 190V260 9999 SCT009 22/20 Q1011
Conditions at: LEMH (MAHON/MENORCA IS, ES) observed 0530 UTC 22 June 2021
Temperature: 22.0°C (72°F)
Dewpoint: 20.0°C (68°F) [RH = 88%]
Pressure (altimeter): 29.85 inches Hg (1011.0 mb)
Winds: from the SW (220 degrees) at 7 MPH (6 knots; 3.1 m/s)
Visibility: 6 or more miles (10+ km)
Ceiling: at least 12,000 feet AGL
Clouds: scattered clouds at 900 feet AGL
Weather: no significant weather observed at this time

METAR text: LEMH 220500Z 22005KT 9999 SCT007 21/20 Q1011
Conditions at: LEMH (MAHON/MENORCA IS, ES) observed 0500 UTC 22 June 2021
Temperature: 21.0°C (70°F)
Dewpoint: 20.0°C (68°F) [RH = 94%]
Pressure (altimeter): 29.85 inches Hg (1011.0 mb)
Winds: from the SW (220 degrees) at 6 MPH (5 knots; 2.6 m/s)
Visibility: 6 or more miles (10+ km)
Ceiling: at least 12,000 feet AGL
Clouds: scattered clouds at 700 feet AGL
Weather: no significant weather observed at this time

Forecast for: LEMH (MAHON/MENORCA IS, ES)
Text: TAF LEMH 220200Z 2203/2303 VRB04KT 9999 FEW010 TX29/2212Z TN21/2206Z
Forecast period: 0300 UTC 22 June 2021 to 0300 UTC 23 June 2021
Forecast type: FROM: standard forecast or significant change
Winds: variable direction winds at 5 MPH (4 knots; 2.1 m/s)
Visibility: 6 or more miles (10+ km)
Ceiling: at least 12,000 feet AGL
Clouds: few clouds at 1000 feet AGL
Weather: no significant weather forecast for this period
Text: PROB30
Forecast period: 0300 to 0600 UTC 22 June 2021
Forecast type: TEMPORARY: The following changes expected for less than half the time period
Visibility: 2.49 miles (4.01 km)
Ceiling: 1000 feet AGL
Clouds: broken clouds at 1000 feet AGL
Weather: BR  (mist)
Text: TEMPO 2203/2206 4000 BR BKN010
Forecast period: 1100 to 1800 UTC 22 June 2021
Forecast type: TEMPORARY: The following changes expected for less than half the time period
Winds: from the ESE (120 degrees) at 12 MPH (10 knots; 5.1 m/s)
Visibility: missing
Ceiling: unknown
Clouds: missing
Weather: no significant weather forecast for this period

 MAPA DE AEROPUERTO

 INFORMACIÓN DE PISTA
Pista 01L Longitud 7710 ft Ancho 148 ft
Elevación 277 ft Umbral desplazado 0 ft Rumbo de pista 9
Pista 19R Longitud 7710 ft Ancho 148 ft
Elevación 298 ft Umbral desplazado 0 ft Rumbo de pista 189
Pista 01R Longitud 6890 ft Ancho 148 ft
Elevación 272 ft Umbral desplazado 0 ft Rumbo de pista 9
Pista 19L Longitud 6890 ft Ancho 148 ft
Elevación 298 ft Umbral desplazado 0 ft Rumbo de pista 189

 FRECUANCIAS DEL AEROPUERTO
Tipo APP Nombre APP Frecuencia 119.65 MHZ
Tipo ATIS Nombre ATIS Frecuencia 112.6 MHZ
Tipo GND Nombre GND Frecuencia 121.75 MHZ
Tipo TWR Nombre TWR Frecuencia 118.2 MHZ

 RADIO AYUDAS DEL AEROPUERTO
Tipo VOR-DME Nombre Menorca Frecuencia 112600 KHZ
Tipo NDB Nombre Menorca Frecuencia 344 KHZ



Powered by Virtual Airlines Manager [v2.6.2]